Time;durP1;ratioP1;P1;durP2;ratioP2;P2;SDS_P1;SDS_P2;PMS_P1;PMS_P2;Temp;Humidity;BMP_temperature;BMP_pressure;BME280_temperature;BME280_humidity;BME280_pressure;Samples;Min_cycle;Max_cycle;Signal;HPM_P1;HPM_P2
2022/04/15 00:01:14;;;;;;;;;16.75;15.25;;;;;;;;5054337;28;45706;-83
2022/04/15 00:03:39;;;;;;;;;14.25;13.25;;;;;;;;5054143;28;45521;-83
2022/04/15 00:06:08;;;;;;;;;15.50;14.00;;;;;;;;5054631;28;45291;-83
2022/04/15 00:08:34;;;;;;;;;17.00;13.00;;;;;;;;5054522;28;45497;-83
2022/04/15 00:10:59;;;;;;;;;13.00;13.00;;;;;;;;5053921;28;46851;-83
2022/04/15 00:13:26;;;;;;;;;14.00;12.75;;;;;;;;5062353;28;45356;-83
2022/04/15 00:15:51;;;;;;;;;12.50;12.50;;;;;;;;5052452;28;45499;-83
2022/04/15 00:18:16;;;;;;;;;14.25;12.25;;;;;;;;5054498;28;47078;-83
2022/04/15 00:20:41;;;;;;;;;9.00;9.00;;;;;;;;5054556;28;46654;-83
2022/04/15 00:23:07;;;;;;;;;10.00;9.25;;;;;;;;5054581;28;45546;-83
2022/04/15 00:25:32;;;;;;;;;11.50;10.50;;;;;;;;5055776;28;45355;-83
2022/04/15 00:27:57;;;;;;;;;12.00;12.00;;;;;;;;5054627;28;45590;-82
2022/04/15 00:30:22;;;;;;;;;12.25;11.25;;;;;;;;5054451;28;45513;-82
2022/04/15 00:32:47;;;;;;;;;8.75;8.75;;;;;;;;5048762;28;45505;-83
2022/04/15 00:35:13;;;;;;;;;12.75;9.00;;;;;;;;5052595;28;45341;-83
2022/04/15 00:37:38;;;;;;;;;11.75;11.75;;;;;;;;5054612;28;45412;-83
2022/04/15 00:40:06;;;;;;;;;14.25;12.75;;;;;;;;5054793;28;45382;-83
2022/04/15 00:42:31;;;;;;;;;12.50;10.25;;;;;;;;5052347;28;45500;-83
2022/04/15 00:44:57;;;;;;;;;13.50;13.00;;;;;;;;5053930;28;45416;-83
2022/04/15 00:47:25;;;;;;;;;11.50;11.50;;;;;;;;5051973;28;45342;-87
2022/04/15 00:49:50;;;;;;;;;13.75;10.75;;;;;;;;5062142;28;47227;-87
2022/04/15 00:52:17;;;;;;;;;8.25;8.25;;;;;;;;5065952;28;45300;-88
2022/04/15 00:54:44;;;;;;;;;13.75;12.00;;;;;;;;5059478;28;45594;-87
2022/04/15 00:57:11;;;;;;;;;12.50;8.25;;;;;;;;5057048;28;45973;-86
2022/04/15 00:59:38;;;;;;;;;11.50;9.50;;;;;;;;5058155;28;46255;-86
2022/04/15 01:02:03;;;;;;;;;10.00;9.00;;;;;;;;5057749;28;45275;-87
2022/04/15 01:04:30;;;;;;;;;10.25;9.50;;;;;;;;5057031;28;45339;-87
2022/04/15 01:06:57;;;;;;;;;10.50;8.75;;;;;;;;5054758;28;45407;-87
2022/04/15 01:09:23;;;;;;;;;11.25;8.50;;;;;;;;5054409;28;47147;-87
2022/04/15 01:11:50;;;;;;;;;4.75;4.75;;;;;;;;5043911;28;45482;-86
2022/04/15 01:14:16;;;;;;;;;8.00;6.00;;;;;;;;5054405;28;45305;-87
2022/04/15 01:16:41;;;;;;;;;7.25;6.50;;;;;;;;5055563;28;45482;-87
2022/04/15 01:19:06;;;;;;;;;6.50;5.25;;;;;;;;5056035;28;45381;-87
2022/04/15 01:21:34;;;;;;;;;5.50;5.50;;;;;;;;5054218;28;45327;-86
2022/04/15 01:23:59;;;;;;;;;10.75;10.00;;;;;;;;5038815;28;45375;-87
2022/04/15 01:26:24;;;;;;;;;9.00;8.00;;;;;;;;5050374;28;45286;-87
2022/04/15 01:28:49;;;;;;;;;6.75;5.75;;;;;;;;5057682;28;47178;-87
2022/04/15 01:31:14;;;;;;;;;7.75;7.75;;;;;;;;5054421;28;45414;-87
2022/04/15 01:33:40;;;;;;;;;10.00;6.75;;;;;;;;5054265;28;45387;-86
2022/04/15 01:36:05;;;;;;;;;9.50;7.50;;;;;;;;5052183;28;45414;-86
2022/04/15 01:38:30;;;;;;;;;5.25;5.25;;;;;;;;5053104;28;47012;-86
2022/04/15 01:40:56;;;;;;;;;6.75;5.25;;;;;;;;5035028;28;45489;-87
2022/04/15 01:43:21;;;;;;;;;1.50;1.00;;;;;;;;5056014;28;45428;-87
2022/04/15 01:45:47;;;;;;;;;2.50;2.50;;;;;;;;5053840;28;45510;-87
2022/04/15 01:48:12;;;;;;;;;6.00;6.00;;;;;;;;5053693;28;47081;-88
2022/04/15 01:50:38;;;;;;;;;8.00;5.25;;;;;;;;5052663;28;45365;-86
2022/04/15 01:53:03;;;;;;;;;7.75;5.25;;;;;;;;5053889;28;45501;-87
2022/04/15 01:55:28;;;;;;;;;7.50;7.50;;;;;;;;5056213;28;45299;-87
2022/04/15 01:57:54;;;;;;;;;8.50;6.75;;;;;;;;5047229;28;46670;-83
2022/04/15 02:00:19;;;;;;;;;9.25;9.25;;;;;;;;5052856;28;45898;-83
2022/04/15 02:02:45;;;;;;;;;7.75;7.75;;;;;;;;5060535;28;45349;-83
2022/04/15 02:05:10;;;;;;;;;8.50;7.50;;;;;;;;5056227;28;45327;-84
2022/04/15 02:07:35;;;;;;;;;7.25;7.25;;;;;;;;5054331;28;45630;-83
2022/04/15 02:10:00;;;;;;;;;9.25;7.25;;;;;;;;5051334;28;45440;-82
2022/04/15 02:12:25;;;;;;;;;6.50;6.50;;;;;;;;5052720;28;45379;-84
2022/04/15 02:14:51;;;;;;;;;14.50;14.50;;;;;;;;5039671;28;45293;-88
2022/04/15 02:17:17;;;;;;;;;9.25;7.50;;;;;;;;5053795;28;45455;-89
2022/04/15 02:19:42;;;;;;;;;11.00;9.00;;;;;;;;5053774;28;45323;-88
2022/04/15 02:22:07;;;;;;;;;9.50;9.25;;;;;;;;5055027;28;45402;-88
2022/04/15 02:24:32;;;;;;;;;8.25;6.75;;;;;;;;5052274;28;45341;-89
2022/04/15 02:26:58;;;;;;;;;7.25;5.00;;;;;;;;5053912;28;46234;-88
2022/04/15 02:29:24;;;;;;;;;4.25;4.25;;;;;;;;5051004;28;45317;-88
2022/04/15 02:31:49;;;;;;;;;7.00;7.00;;;;;;;;5052967;28;45580;-88
2022/04/15 02:34:14;;;;;;;;;8.00;8.00;;;;;;;;5055776;28;45309;-88
2022/04/15 02:36:39;;;;;;;;;10.75;8.25;;;;;;;;5053386;28;47064;-88
2022/04/15 02:39:10;;;;;;;;;7.00;7.00;;;;;;;;5058791;28;45565;-90
2022/04/15 02:41:35;;;;;;;;;11.75;9.00;;;;;;;;5058752;28;45310;-89
2022/04/15 02:44:00;;;;;;;;;7.25;7.25;;;;;;;;5051881;28;45328;-89
2022/04/15 02:46:25;;;;;;;;;6.00;6.00;;;;;;;;5054542;28;45378;-89
2022/04/15 02:48:51;;;;;;;;;6.50;6.50;;;;;;;;5050184;28;45405;-87
2022/04/15 02:51:17;;;;;;;;;6.25;6.25;;;;;;;;5055636;28;45318;-89
2022/04/15 02:53:42;;;;;;;;;8.75;6.75;;;;;;;;5050985;28;45391;-90
2022/04/15 02:56:07;;;;;;;;;8.25;8.25;;;;;;;;5053642;28;45477;-89
2022/04/15 02:58:32;;;;;;;;;8.75;8.75;;;;;;;;5054567;28;45667;-87
2022/04/15 03:00:58;;;;;;;;;7.75;7.75;;;;;;;;5055237;28;45449;-89
2022/04/15 03:03:23;;;;;;;;;8.00;7.00;;;;;;;;5056026;28;45629;-89
2022/04/15 03:05:48;;;;;;;;;9.25;8.25;;;;;;;;5055534;28;46073;-89
2022/04/15 03:08:13;;;;;;;;;7.50;7.50;;;;;;;;5054652;28;45340;-89
2022/04/15 03:10:38;;;;;;;;;6.75;6.75;;;;;;;;5057439;28;45427;-89
2022/04/15 03:13:04;;;;;;;;;9.75;9.00;;;;;;;;5059519;28;45574;-87
2022/04/15 03:15:29;;;;;;;;;9.25;7.50;;;;;;;;5061490;28;45973;-89
2022/04/15 03:17:54;;;;;;;;;12.50;10.75;;;;;;;;5065068;28;45285;-89
2022/04/15 03:20:19;;;;;;;;;9.50;8.75;;;;;;;;5060335;28;45348;-87
2022/04/15 03:22:44;;;;;;;;;8.75;8.50;;;;;;;;5056366;28;45266;-87
2022/04/15 03:25:12;;;;;;;;;14.25;13.00;;;;;;;;5057781;28;46404;-87
2022/04/15 03:27:37;;;;;;;;;12.50;7.50;;;;;;;;5054944;28;45313;-86
2022/04/15 03:30:04;;;;;;;;;16.25;11.75;;;;;;;;5053981;28;45359;-89
2022/04/15 03:32:29;;;;;;;;;13.00;10.50;;;;;;;;5054866;28;45384;-89
2022/04/15 03:34:56;;;;;;;;;13.00;10.00;;;;;;;;5056254;28;47255;-87
2022/04/15 03:37:21;;;;;;;;;10.25;8.75;;;;;;;;5058279;28;45399;-88
2022/04/15 03:39:46;;;;;;;;;14.25;13.25;;;;;;;;5055913;28;45809;-86
2022/04/15 03:42:11;;;;;;;;;9.75;9.75;;;;;;;;5056367;28;45594;-88
2022/04/15 03:44:37;;;;;;;;;12.50;11.75;;;;;;;;5055730;28;45338;-88
2022/04/15 03:47:05;;;;;;;;;12.50;10.75;;;;;;;;5053298;28;45301;-88
2022/04/15 03:49:31;;;;;;;;;12.50;12.00;;;;;;;;5059136;28;45462;-89
2022/04/15 03:51:56;;;;;;;;;12.75;12.00;;;;;;;;5056231;28;45614;-87
2022/04/15 03:54:21;;;;;;;;;14.00;11.00;;;;;;;;5062089;28;45887;-87
2022/04/15 03:56:46;;;;;;;;;14.00;13.50;;;;;;;;5062374;28;45347;-89
2022/04/15 03:59:12;;;;;;;;;15.25;13.75;;;;;;;;5056230;28;45466;-87
2022/04/15 04:01:37;;;;;;;;;15.75;14.75;;;;;;;;5055976;28;45359;-88
2022/04/15 04:04:02;;;;;;;;;13.25;13.25;;;;;;;;5056488;28;46101;-88
2022/04/15 04:06:28;;;;;;;;;21.50;20.00;;;;;;;;5059512;28;45850;-88
2022/04/15 04:08:53;;;;;;;;;15.25;14.25;;;;;;;;5053848;28;45585;-87
2022/04/15 04:11:19;;;;;;;;;25.50;20.25;;;;;;;;5054118;28;44809;-88
2022/04/15 04:13:44;;;;;;;;;24.75;21.00;;;;;;;;5055302;28;45502;-88
2022/04/15 04:16:11;;;;;;;;;18.25;17.25;;;;;;;;5056316;28;45346;-88
2022/04/15 04:18:37;;;;;;;;;15.75;14.50;;;;;;;;5049841;28;45516;-88
2022/04/15 04:21:02;;;;;;;;;18.75;15.50;;;;;;;;5046032;28;45423;-88
2022/04/15 04:23:27;;;;;;;;;17.75;16.25;;;;;;;;5055084;28;46173;-88
2022/04/15 04:25:52;;;;;;;;;19.00;16.00;;;;;;;;5056614;28;45683;-88
2022/04/15 04:28:17;;;;;;;;;22.75;19.00;;;;;;;;5058567;28;45407;-88
2022/04/15 04:30:43;;;;;;;;;18.75;17.50;;;;;;;;5041566;28;45416;-88
2022/04/15 04:33:08;;;;;;;;;19.75;17.50;;;;;;;;5063204;28;45450;-88
2022/04/15 04:35:33;;;;;;;;;19.75;19.00;;;;;;;;5060784;28;45275;-87
2022/04/15 04:37:58;;;;;;;;;17.25;15.75;;;;;;;;5057765;28;45490;-88
2022/04/15 04:40:24;;;;;;;;;18.25;17.00;;;;;;;;5051393;28;45332;-90
2022/04/15 04:42:51;;;;;;;;;16.00;13.00;;;;;;;;5054757;28;46151;-88
2022/04/15 04:45:17;;;;;;;;;19.50;17.75;;;;;;;;5054886;28;45298;-88
2022/04/15 04:47:44;;;;;;;;;14.25;11.25;;;;;;;;5057581;28;45353;-89
2022/04/15 04:50:10;;;;;;;;;16.50;13.75;;;;;;;;5055616;28;49617;-88
2022/04/15 04:52:38;;;;;;;;;16.25;14.50;;;;;;;;5058966;28;46806;-88
2022/04/15 04:55:04;;;;;;;;;18.00;16.50;;;;;;;;5050778;28;45582;-88
2022/04/15 04:57:29;;;;;;;;;13.25;13.25;;;;;;;;5054345;28;45480;-85
2022/04/15 04:59:56;;;;;;;;;16.25;16.00;;;;;;;;5052154;28;45294;-84
2022/04/15 05:02:21;;;;;;;;;13.75;13.75;;;;;;;;5054870;28;46183;-89
2022/04/15 05:04:46;;;;;;;;;19.50;16.50;;;;;;;;5056797;28;45391;-89
2022/04/15 05:07:14;;;;;;;;;12.00;11.75;;;;;;;;5065897;28;45194;-90
2022/04/15 05:09:41;;;;;;;;;7.75;7.25;;;;;;;;5060711;28;45500;-89
2022/04/15 05:12:07;;;;;;;;;12.00;11.50;;;;;;;;5057778;28;46425;-89
2022/04/15 05:14:32;;;;;;;;;13.50;13.50;;;;;;;;5056276;28;45345;-88
2022/04/15 05:16:57;;;;;;;;;16.00;16.00;;;;;;;;5055936;28;45468;-88
2022/04/15 05:19:23;;;;;;;;;7.75;6.50;;;;;;;;5055736;28;45372;-88
2022/04/15 05:21:49;;;;;;;;;24.25;23.75;;;;;;;;5052964;28;45498;-88
2022/04/15 05:24:14;;;;;;;;;15.00;14.50;;;;;;;;5052361;28;45414;-89
2022/04/15 05:26:39;;;;;;;;;14.00;12.25;;;;;;;;5052344;28;45375;-87
2022/04/15 05:29:04;;;;;;;;;11.00;11.00;;;;;;;;5050680;28;45238;-87
2022/04/15 05:31:30;;;;;;;;;11.50;11.50;;;;;;;;5047629;28;46268;-86
2022/04/15 05:33:55;;;;;;;;;12.00;10.50;;;;;;;;5051498;28;45439;-88
2022/04/15 05:36:20;;;;;;;;;11.00;11.00;;;;;;;;5051732;28;45403;-86
2022/04/15 05:38:45;;;;;;;;;12.50;11.25;;;;;;;;5051921;28;45274;-87
2022/04/15 05:41:11;;;;;;;;;14.50;10.50;;;;;;;;5035316;28;48279;-87
2022/04/15 05:43:37;;;;;;;;;27.00;25.00;;;;;;;;5054611;28;45267;-87
2022/04/15 05:46:02;;;;;;;;;15.00;13.75;;;;;;;;5053645;28;45405;-86
2022/04/15 05:48:27;;;;;;;;;14.50;14.00;;;;;;;;5060919;28;45489;-88
2022/04/15 05:50:53;;;;;;;;;18.00;16.00;;;;;;;;5063885;28;46341;-89
2022/04/15 05:53:18;;;;;;;;;20.75;17.00;;;;;;;;5033155;28;45372;-87
2022/04/15 05:55:43;;;;;;;;;16.25;15.25;;;;;;;;5052777;28;45375;-87
2022/04/15 05:58:10;;;;;;;;;26.00;20.50;;;;;;;;5053588;28;45486;-86
2022/04/15 06:00:35;;;;;;;;;20.50;19.75;;;;;;;;5052370;28;46240;-86
2022/04/15 06:03:00;;;;;;;;;20.75;18.75;;;;;;;;5051440;28;45450;-87
2022/04/15 06:05:27;;;;;;;;;22.50;18.75;;;;;;;;5052646;28;45419;-86
2022/04/15 06:07:52;;;;;;;;;28.00;21.75;;;;;;;;5052678;28;47093;-80
2022/04/15 06:10:18;;;;;;;;;20.00;18.00;;;;;;;;5053942;28;46290;-89
2022/04/15 06:13:06;;;;;;;;;24.75;23.50;;;;;;;;5052231;28;45673;-82
2022/04/15 06:15:32;;;;;;;;;25.50;21.25;;;;;;;;5051527;28;45493;-82
2022/04/15 06:17:58;;;;;;;;;22.25;21.25;;;;;;;;5050156;28;45438;-82
2022/04/15 06:20:23;;;;;;;;;19.25;19.00;;;;;;;;5051549;28;46959;-83
2022/04/15 06:22:48;;;;;;;;;23.00;20.75;;;;;;;;5053205;28;45542;-83
2022/04/15 06:25:14;;;;;;;;;16.50;16.00;;;;;;;;5046924;28;45435;-82
2022/04/15 06:27:39;;;;;;;;;20.50;20.25;;;;;;;;5044908;28;45333;-83
2022/04/15 06:30:06;;;;;;;;;26.25;23.75;;;;;;;;5052667;28;45376;-81
2022/04/15 06:32:31;;;;;;;;;17.00;17.00;;;;;;;;5033523;28;45389;-80
2022/04/15 06:34:56;;;;;;;;;28.25;24.25;;;;;;;;5051387;28;45619;-82
2022/04/15 06:37:21;;;;;;;;;26.00;24.75;;;;;;;;5055011;28;45605;-81
2022/04/15 06:39:50;;;;;;;;;33.00;29.25;;;;;;;;5062263;28;45698;-81
2022/04/15 06:42:21;;;;;;;;;28.00;25.75;;;;;;;;5059148;27;45501;-83
2022/04/15 06:44:47;;;;;;;;;33.75;26.75;;;;;;;;5055123;28;45575;-81
2022/04/15 06:47:12;;;;;;;;;30.00;28.00;;;;;;;;5053764;28;45707;-81
2022/04/15 06:49:37;;;;;;;;;25.25;24.00;;;;;;;;5056185;28;46212;-82
2022/04/15 06:52:02;;;;;;;;;25.50;23.25;;;;;;;;5054816;28;45390;-82
2022/04/15 06:54:28;;;;;;;;;23.75;23.00;;;;;;;;5054051;28;45797;-82
2022/04/15 06:56:53;;;;;;;;;33.50;28.00;;;;;;;;5053536;28;45469;-82
2022/04/15 06:59:19;;;;;;;;;37.50;31.00;;;;;;;;5054101;28;45439;-82
2022/04/15 07:01:44;;;;;;;;;27.25;22.25;;;;;;;;5053673;28;45491;-79
2022/04/15 07:04:10;;;;;;;;;22.50;20.25;;;;;;;;5055204;28;45394;-82
2022/04/15 07:06:35;;;;;;;;;29.25;23.25;;;;;;;;5057475;28;45405;-82
2022/04/15 07:09:00;;;;;;;;;22.75;21.50;;;;;;;;5053442;28;46307;-82
2022/04/15 07:11:25;;;;;;;;;23.00;23.00;;;;;;;;5053302;28;45360;-82
2022/04/15 07:13:50;;;;;;;;;21.50;18.50;;;;;;;;5057744;28;45582;-91
2022/04/15 07:16:16;;;;;;;;;19.00;18.00;;;;;;;;5068496;28;45199;-91
2022/04/15 07:18:41;;;;;;;;;18.50;18.50;;;;;;;;5069250;28;45484;-91
2022/04/15 07:21:06;;;;;;;;;20.00;17.75;;;;;;;;5060896;28;45220;-90
2022/04/15 07:23:31;;;;;;;;;22.00;20.25;;;;;;;;5055961;28;47563;-91
2022/04/15 07:25:56;;;;;;;;;19.75;17.25;;;;;;;;5059726;28;45251;-89
2022/04/15 07:28:21;;;;;;;;;22.25;20.75;;;;;;;;5043823;28;46655;-90
2022/04/15 07:30:47;;;;;;;;;17.00;16.75;;;;;;;;5052601;28;45444;-91
2022/04/15 07:33:12;;;;;;;;;21.25;21.00;;;;;;;;5061506;28;45422;-91
2022/04/15 07:35:37;;;;;;;;;22.75;22.50;;;;;;;;5061488;28;45469;-89
2022/04/15 07:38:02;;;;;;;;;26.00;23.50;;;;;;;;5060968;28;46902;-90
2022/04/15 07:40:29;;;;;;;;;24.25;23.25;;;;;;;;5069746;28;45323;-88
2022/04/15 07:42:57;;;;;;;;;23.50;23.00;;;;;;;;5071331;27;45467;-90
2022/04/15 07:45:22;;;;;;;;;21.75;19.50;;;;;;;;5076014;28;44789;-88
2022/04/15 07:47:47;;;;;;;;;29.50;25.50;;;;;;;;5049061;28;45895;-90
2022/04/15 07:50:13;;;;;;;;;19.50;18.50;;;;;;;;5058897;28;45373;-90
2022/04/15 07:52:38;;;;;;;;;28.25;24.00;;;;;;;;5060255;28;45268;-88
2022/04/15 07:55:03;;;;;;;;;25.75;21.25;;;;;;;;5053719;28;45337;-90
2022/04/15 07:57:30;;;;;;;;;21.75;18.25;;;;;;;;5065340;28;46263;-91
2022/04/15 07:59:55;;;;;;;;;15.50;14.00;;;;;;;;5065368;28;45469;-91
2022/04/15 08:02:21;;;;;;;;;14.50;13.75;;;;;;;;5056497;28;45310;-90
2022/04/15 08:04:46;;;;;;;;;15.25;14.00;;;;;;;;5055680;28;45254;-90
2022/04/15 08:07:12;;;;;;;;;14.50;12.50;;;;;;;;5057217;28;46318;-89
2022/04/15 08:09:39;;;;;;;;;9.25;9.25;;;;;;;;5054712;28;45482;-89
2022/04/15 08:12:04;;;;;;;;;12.00;12.00;;;;;;;;5055129;28;45304;-87
2022/04/15 08:14:30;;;;;;;;;12.75;9.50;;;;;;;;5052384;28;45465;-81
2022/04/15 08:16:55;;;;;;;;;12.75;11.75;;;;;;;;5051942;27;46281;-82
2022/04/15 08:19:21;;;;;;;;;10.75;9.25;;;;;;;;5055644;28;45319;-82
2022/04/15 08:21:46;;;;;;;;;9.25;8.75;;;;;;;;5059064;27;45193;-81
2022/04/15 08:24:11;;;;;;;;;6.25;6.25;;;;;;;;5058961;28;45498;-85
2022/04/15 08:26:36;;;;;;;;;5.25;5.25;;;;;;;;5052952;28;46088;-86
2022/04/15 08:29:01;;;;;;;;;6.00;5.00;;;;;;;;5052286;28;45337;-87
2022/04/15 08:31:27;;;;;;;;;4.75;4.75;;;;;;;;5054876;28;45390;-86
2022/04/15 08:33:52;;;;;;;;;4.00;4.00;;;;;;;;5052878;28;45306;-87
2022/04/15 08:36:17;;;;;;;;;4.00;4.00;;;;;;;;5050937;28;46084;-85
2022/04/15 08:38:42;;;;;;;;;5.50;4.25;;;;;;;;5051443;28;47884;-80
2022/04/15 08:41:11;;;;;;;;;3.75;3.50;;;;;;;;5051160;28;45565;-80
2022/04/15 08:43:36;;;;;;;;;3.00;3.00;;;;;;;;5052596;28;45335;-80
2022/04/15 08:46:05;;;;;;;;;5.00;4.25;;;;;;;;5052505;28;46122;-79
2022/04/15 08:48:31;;;;;;;;;4.00;4.00;;;;;;;;5048098;28;45746;-82
2022/04/15 08:50:58;;;;;;;;;2.75;1.75;;;;;;;;5051276;28;45315;-85
2022/04/15 08:53:23;;;;;;;;;1.00;1.00;;;;;;;;5054339;28;45479;-86
2022/04/15 08:55:49;;;;;;;;;1.00;1.00;;;;;;;;5055827;28;47105;-79
2022/04/15 08:58:14;;;;;;;;;4.50;3.25;;;;;;;;5054026;28;45467;-83
2022/04/15 09:00:39;;;;;;;;;3.75;2.00;;;;;;;;5051535;28;45449;-85
2022/04/15 09:03:05;;;;;;;;;2.50;2.50;;;;;;;;5058306;28;45468;-87
2022/04/15 09:05:30;;;;;;;;;4.00;4.00;;;;;;;;5056664;28;46193;-85
2022/04/15 09:08:02;;;;;;;;;4.00;3.00;;;;;;;;5051379;28;45394;-84
2022/04/15 09:10:27;;;;;;;;;7.25;7.25;;;;;;;;5053918;28;45412;-82
2022/04/15 09:12:53;;;;;;;;;4.00;3.00;;;;;;;;5038724;28;45620;-83
2022/04/15 09:15:18;;;;;;;;;2.00;2.00;;;;;;;;5051355;28;46433;-84
2022/04/15 09:17:49;;;;;;;;;4.00;4.00;;;;;;;;5052951;28;45576;-81
2022/04/15 09:20:15;;;;;;;;;6.00;6.00;;;;;;;;5054718;28;45439;-81
2022/04/15 09:22:40;;;;;;;;;3.25;2.75;;;;;;;;5052533;28;45279;-83
2022/04/15 09:25:06;;;;;;;;;4.00;4.00;;;;;;;;5052725;28;47120;-82
2022/04/15 09:27:32;;;;;;;;;4.00;3.25;;;;;;;;5053073;28;45410;-81
2022/04/15 09:29:57;;;;;;;;;5.00;4.00;;;;;;;;5053076;28;45386;-81
2022/04/15 09:32:24;;;;;;;;;5.50;4.50;;;;;;;;5051608;28;45409;-81
2022/04/15 09:35:06;;;;;;;;;3.00;3.00;;;;;;;;5051611;28;47172;-80
2022/04/15 09:37:34;;;;;;;;;4.75;4.75;;;;;;;;5049509;28;46459;-83
2022/04/15 09:40:13;;;;;;;;;3.00;3.00;;;;;;;;5050673;28;45291;-83
2022/04/15 09:42:46;;;;;;;;;2.00;2.00;;;;;;;;5051286;28;45386;-83
2022/04/15 09:45:11;;;;;;;;;4.75;4.75;;;;;;;;5050210;28;46118;-84
2022/04/15 09:47:36;;;;;;;;;10.80;10.80;;;;;;;;5052233;28;45404;-82
2022/04/15 09:50:03;;;;;;;;;4.75;4.75;;;;;;;;5057536;28;45565;-83
2022/04/15 09:52:28;;;;;;;;;6.00;6.00;;;;;;;;5057219;28;45498;-83
2022/04/15 09:54:56;;;;;;;;;9.25;9.25;;;;;;;;5054075;28;45358;-84
2022/04/15 09:57:23;;;;;;;;;3.00;3.00;;;;;;;;5058465;28;45357;-83
2022/04/15 09:59:49;;;;;;;;;5.75;4.50;;;;;;;;5058586;28;46962;-82
2022/04/15 10:02:14;;;;;;;;;4.00;4.00;;;;;;;;5058124;28;45262;-83
2022/04/15 10:04:41;;;;;;;;;3.50;2.50;;;;;;;;5055725;28;47202;-82
2022/04/15 10:07:08;;;;;;;;;5.00;5.00;;;;;;;;5056070;28;45425;-82
2022/04/15 10:09:38;;;;;;;;;8.00;5.75;;;;;;;;5052650;28;45478;-82
2022/04/15 10:12:04;;;;;;;;;1.25;1.25;;;;;;;;5054333;28;45570;-84
2022/04/15 10:14:30;;;;;;;;;6.00;6.00;;;;;;;;5054633;28;46837;-84
2022/04/15 10:16:57;;;;;;;;;7.00;6.25;;;;;;;;5054576;28;45507;-83
2022/04/15 10:19:23;;;;;;;;;2.50;2.50;;;;;;;;5042153;28;45414;-83
2022/04/15 10:21:50;;;;;;;;;2.50;2.50;;;;;;;;5054161;28;45495;-83
2022/04/15 10:24:16;;;;;;;;;2.00;2.00;;;;;;;;5054974;28;49377;-84
2022/04/15 10:26:43;;;;;;;;;4.25;4.00;;;;;;;;5054170;28;45501;-83
2022/04/15 10:29:09;;;;;;;;;3.00;3.00;;;;;;;;5056255;28;45290;-83
2022/04/15 10:31:42;;;;;;;;;7.25;6.00;;;;;;;;5057887;28;45285;-83
2022/04/15 10:34:08;;;;;;;;;2.75;2.00;;;;;;;;5057351;28;46558;-83
2022/04/15 10:36:35;;;;;;;;;4.50;3.25;;;;;;;;5059063;28;45352;-82
2022/04/15 10:39:03;;;;;;;;;3.00;3.00;;;;;;;;5058120;28;45297;-82
2022/04/15 10:41:52;;;;;;;;;1.67;1.67;;;;;;;;5054650;28;45379;-83
2022/04/15 10:44:25;;;;;;;;;2.25;1.00;;;;;;;;5029208;28;47102;-83
2022/04/15 10:46:50;;;;;;;;;2.00;1.00;;;;;;;;5053463;28;45363;-84
2022/04/15 10:49:18;;;;;;;;;2.00;2.00;;;;;;;;5041276;28;45387;-83
2022/04/15 10:51:44;;;;;;;;;1.25;1.25;;;;;;;;5053786;28;45552;-82
2022/04/15 10:54:28;;;;;;;;;2.00;2.00;;;;;;;;5054681;28;46324;-82
2022/04/15 10:57:03;;;;;;;;;1.00;1.00;;;;;;;;5052482;28;45364;-83
2022/04/15 11:02:43;;;;;;;;;1.00;1.00;;;;;;;;5038975;28;46413;-83
2022/04/15 11:05:11;;;;;;;;;2.00;2.00;;;;;;;;5054513;28;46539;-83
2022/04/15 11:07:41;;;;;;;;;3.00;3.00;;;;;;;;5056178;28;45232;-82
2022/04/15 11:10:14;;;;;;;;;3.25;1.75;;;;;;;;5058996;27;45349;-82
2022/04/15 11:12:42;;;;;;;;;8.25;6.50;;;;;;;;5053576;28;45507;-82
2022/04/15 11:15:08;;;;;;;;;2.75;2.50;;;;;;;;5053877;28;47193;-82
2022/04/15 11:17:38;;;;;;;;;3.00;3.00;;;;;;;;5053131;28;45429;-83
2022/04/15 11:20:05;;;;;;;;;1.67;1.33;;;;;;;;5038238;28;45448;-83
2022/04/15 11:22:31;;;;;;;;;1.50;1.00;;;;;;;;5057147;28;45360;-82
2022/04/15 11:24:56;;;;;;;;;1.00;1.00;;;;;;;;5051453;28;46380;-82
2022/04/15 11:27:22;;;;;;;;;2.25;1.75;;;;;;;;5053193;28;47372;-82
2022/04/15 11:29:47;;;;;;;;;3.25;3.00;;;;;;;;5053362;28;45797;-83
2022/04/15 11:32:13;;;;;;;;;1.75;1.00;;;;;;;;5051444;28;45551;-84
2022/04/15 11:34:38;;;;;;;;;1.00;1.00;;;;;;;;5054896;28;46414;-82
2022/04/15 11:37:05;;;;;;;;;3.00;3.00;;;;;;;;5054119;28;45305;-82
2022/04/15 11:39:35;;;;;;;;;0.75;0.75;;;;;;;;5039325;28;45399;-79
2022/04/15 11:42:00;;;;;;;;;1.00;1.00;;;;;;;;5053531;28;45435;-81
2022/04/15 11:44:30;;;;;;;;;2.00;2.00;;;;;;;;5051990;28;46146;-79
2022/04/15 11:46:55;;;;;;;;;1.75;1.75;;;;;;;;5052434;28;45296;-80
2022/04/15 11:49:21;;;;;;;;;4.75;4.00;;;;;;;;5055036;28;45407;-80
2022/04/15 11:51:47;;;;;;;;;2.00;2.00;;;;;;;;5050410;28;45450;-81
2022/04/15 11:54:12;;;;;;;;;1.50;1.50;;;;;;;;5050549;28;46147;-80
2022/04/15 11:56:38;;;;;;;;;0.00;0.00;;;;;;;;5051702;28;45517;-80
2022/04/15 11:59:04;;;;;;;;;1.00;1.00;;;;;;;;5051804;28;45367;-80
2022/04/15 12:01:33;;;;;;;;;4.00;4.00;;;;;;;;5054359;28;45496;-80
2022/04/15 12:03:59;;;;;;;;;3.25;2.00;;;;;;;;5051029;28;46317;-80
2022/04/15 12:06:25;;;;;;;;;1.25;1.25;;;;;;;;5051812;28;45326;-81
2022/04/15 12:08:51;;;;;;;;;5.75;3.75;;;;;;;;5051405;28;45679;-80
2022/04/15 12:11:22;;;;;;;;;2.00;2.00;;;;;;;;5051701;28;45290;-80
2022/04/15 12:13:47;;;;;;;;;4.50;4.50;;;;;;;;5050968;28;46378;-79
2022/04/15 12:16:12;;;;;;;;;3.50;3.00;;;;;;;;5053111;28;45368;-81
2022/04/15 12:18:38;;;;;;;;;3.00;1.75;;;;;;;;5051764;28;45261;-81
2022/04/15 12:21:03;;;;;;;;;2.00;1.00;;;;;;;;5051050;28;45489;-79
2022/04/15 12:23:28;;;;;;;;;1.75;0.00;;;;;;;;5050868;28;46969;-80
2022/04/15 12:26:08;;;;;;;;;1.00;1.00;;;;;;;;5051885;28;45298;-78
2022/04/15 12:31:28;;;;;;;;;1.00;1.00;;;;;;;;5048540;28;45406;-81
2022/04/15 12:33:53;;;;;;;;;2.50;2.50;;;;;;;;5050404;28;47077;-81
2022/04/15 12:36:19;;;;;;;;;1.25;1.25;;;;;;;;5051202;28;45503;-81
2022/04/15 12:39:04;;;;;;;;;2.25;2.25;;;;;;;;5052852;28;45347;-80
2022/04/15 12:41:38;;;;;;;;;1.00;1.00;;;;;;;;5051512;28;45455;-80
2022/04/15 12:44:20;;;;;;;;;3.50;2.00;;;;;;;;5035774;28;47300;-80
2022/04/15 12:46:46;;;;;;;;;5.00;3.50;;;;;;;;5051846;28;45390;-80
2022/04/15 12:49:33;;;;;;;;;3.50;3.50;;;;;;;;5051295;28;45383;-80
2022/04/15 12:52:15;;;;;;;;;4.25;3.25;;;;;;;;5051548;28;45473;-78
2022/04/15 12:54:59;;;;;;;;;6.50;5.00;;;;;;;;5052660;28;45505;-80
2022/04/15 12:57:31;;;;;;;;;4.25;4.25;;;;;;;;5050490;28;45437;-81
2022/04/15 12:59:57;;;;;;;;;3.25;3.25;;;;;;;;5051338;28;45458;-82
2022/04/15 13:02:23;;;;;;;;;3.25;3.25;;;;;;;;5050919;28;45408;-82
2022/04/15 13:04:52;;;;;;;;;3.25;3.25;;;;;;;;5051172;28;46081;-81
2022/04/15 13:07:18;;;;;;;;;2.75;2.75;;;;;;;;5052540;28;45687;-80
2022/04/15 13:09:43;;;;;;;;;7.25;7.25;;;;;;;;5050683;28;45332;-79
2022/04/15 13:12:08;;;;;;;;;3.50;3.00;;;;;;;;5051660;28;45396;-80
2022/04/15 13:14:34;;;;;;;;;3.00;3.00;;;;;;;;5050897;28;45384;-79
2022/04/15 13:16:59;;;;;;;;;3.25;3.25;;;;;;;;5050093;28;45392;-81
2022/04/15 13:19:24;;;;;;;;;2.50;2.50;;;;;;;;5053977;28;45419;-79
2022/04/15 13:21:49;;;;;;;;;3.50;2.75;;;;;;;;5052111;28;45482;-81
2022/04/15 13:24:14;;;;;;;;;6.50;6.50;;;;;;;;5050312;28;45485;-81
2022/04/15 13:26:40;;;;;;;;;5.00;2.00;;;;;;;;5051413;28;45445;-82
2022/04/15 13:29:05;;;;;;;;;1.25;1.25;;;;;;;;5052023;28;45358;-81
2022/04/15 13:31:30;;;;;;;;;3.25;3.25;;;;;;;;5054026;28;45373;-81
2022/04/15 13:33:56;;;;;;;;;3.25;3.25;;;;;;;;5051478;28;46140;-80
2022/04/15 13:36:21;;;;;;;;;6.00;3.75;;;;;;;;5051044;28;49674;-83
2022/04/15 13:38:46;;;;;;;;;6.00;6.00;;;;;;;;5051569;28;45300;-83
2022/04/15 13:41:14;;;;;;;;;5.25;5.25;;;;;;;;5051336;28;45348;-81
2022/04/15 13:43:39;;;;;;;;;2.50;1.00;;;;;;;;5052776;28;46982;-79
2022/04/15 13:46:05;;;;;;;;;4.25;3.75;;;;;;;;5052178;28;45442;-80
2022/04/15 13:48:30;;;;;;;;;4.00;4.00;;;;;;;;5053492;28;45500;-82
2022/04/15 13:50:55;;;;;;;;;7.50;6.75;;;;;;;;5051595;28;45320;-83
2022/04/15 13:58:50;;;;;;;;;4.00;4.00;;;;;;;;5051067;28;45499;-82
2022/04/15 14:01:24;;;;;;;;;4.00;3.25;;;;;;;;5052737;28;45471;-84
2022/04/15 14:03:50;;;;;;;;;2.25;2.25;;;;;;;;5050708;28;46642;-82
2022/04/15 14:06:16;;;;;;;;;5.50;5.50;;;;;;;;5050597;28;45562;-84
2022/04/15 14:08:41;;;;;;;;;7.25;7.25;;;;;;;;5050490;28;45384;-84
2022/04/15 14:11:07;;;;;;;;;7.25;7.25;;;;;;;;5050003;28;45436;-85
2022/04/15 14:13:32;;;;;;;;;4.75;4.75;;;;;;;;5052632;28;45426;-83
2022/04/15 14:15:57;;;;;;;;;6.00;5.75;;;;;;;;5049256;28;45419;-82
2022/04/15 14:18:23;;;;;;;;;8.00;8.00;;;;;;;;5036222;28;45843;-82
2022/04/15 14:20:48;;;;;;;;;7.50;6.00;;;;;;;;5051028;28;45438;-82
2022/04/15 14:23:14;;;;;;;;;8.25;7.00;;;;;;;;5053288;28;45382;-83
2022/04/15 14:25:41;;;;;;;;;7.25;7.25;;;;;;;;5051391;28;45384;-83
2022/04/15 14:28:06;;;;;;;;;10.25;9.75;;;;;;;;5046819;28;45263;-86
2022/04/15 14:30:31;;;;;;;;;11.50;7.25;;;;;;;;5047715;28;45521;-85
2022/04/15 14:32:59;;;;;;;;;9.25;8.25;;;;;;;;5049830;28;45567;-87
2022/04/15 14:35:24;;;;;;;;;12.25;9.25;;;;;;;;5051279;28;45344;-79
2022/04/15 14:37:50;;;;;;;;;12.25;9.75;;;;;;;;5049540;28;45894;-80
2022/04/15 14:40:16;;;;;;;;;14.00;13.50;;;;;;;;5050986;28;45312;-78